createdAt,value
2023-03-03T00:00:46.421Z,20.50
2023-03-03T00:01:46.427Z,20.10
2023-03-03T00:02:46.391Z,20.90
2023-03-03T00:03:46.438Z,21.40
2023-03-03T00:04:46.354Z,20.80
2023-03-03T00:05:46.341Z,21.60
2023-03-03T00:06:46.378Z,21.60
2023-03-03T00:07:46.330Z,20.60
2023-03-03T00:08:46.330Z,21.90
2023-03-03T00:09:46.288Z,21.00
2023-03-03T00:10:46.296Z,19.90
2023-03-03T00:11:46.287Z,20.90
2023-03-03T00:12:46.251Z,21.40
2023-03-03T00:13:46.251Z,20.90
2023-03-03T00:14:46.260Z,20.30
2023-03-03T00:15:46.250Z,19.30
2023-03-03T00:16:46.219Z,20.40
2023-03-03T00:17:46.192Z,19.90
2023-03-03T00:18:46.179Z,20.00
2023-03-03T00:19:46.172Z,19.00
2023-03-03T00:20:46.169Z,19.40
2023-03-03T00:21:46.174Z,19.40
2023-03-03T00:22:46.121Z,20.60
2023-03-03T00:23:46.114Z,20.90
2023-03-03T00:24:46.109Z,19.90
2023-03-03T00:25:46.091Z,21.00
2023-03-03T00:26:46.080Z,20.70
2023-03-03T00:27:46.097Z,20.60
2023-03-03T00:28:46.053Z,21.60
2023-03-03T00:29:46.060Z,22.00
2023-03-03T00:30:46.022Z,21.60
2023-03-03T00:31:46.022Z,22.50
2023-03-03T00:32:46.015Z,21.20
2023-03-03T00:33:45.991Z,21.60
2023-03-03T00:34:45.971Z,22.40
2023-03-03T00:35:45.993Z,21.90
2023-03-03T00:36:45.966Z,22.00
2023-03-03T00:37:45.944Z,20.70
2023-03-03T00:38:45.915Z,21.80
2023-03-03T00:39:45.923Z,20.80
2023-03-03T00:40:45.904Z,21.50
2023-03-03T00:41:45.907Z,19.90
2023-03-03T00:42:45.884Z,19.80
2023-03-03T00:43:45.876Z,21.00
2023-03-03T00:44:45.843Z,20.10
2023-03-03T00:45:45.846Z,21.40
2023-03-03T00:46:45.864Z,20.50
2023-03-03T00:47:45.828Z,21.60
2023-03-03T00:48:45.792Z,20.00
2023-03-03T00:49:45.804Z,20.00
2023-03-03T00:50:45.784Z,20.90
2023-03-03T00:51:45.774Z,21.00
2023-03-03T00:52:45.771Z,19.80
2023-03-03T00:53:45.733Z,21.50
2023-03-03T00:54:45.741Z,21.50
2023-03-03T00:55:45.723Z,20.50
2023-03-03T00:56:45.712Z,21.90
2023-03-03T00:57:45.696Z,20.10
2023-03-03T00:58:45.675Z,22.00
2023-03-03T00:59:45.666Z,20.00
2023-03-03T01:00:45.668Z,20.90
2023-03-03T01:01:45.745Z,22.10
2023-03-03T01:02:45.673Z,22.00
2023-03-03T01:03:45.623Z,21.10
2023-03-03T01:04:45.613Z,19.70
2023-03-03T01:05:45.609Z,21.80
2023-03-03T01:06:45.590Z,20.50
2023-03-03T01:07:45.581Z,20.40
2023-03-03T01:08:45.546Z,20.80
2023-03-03T01:09:45.532Z,20.90
2023-03-03T01:10:45.523Z,20.90
2023-03-03T01:11:45.522Z,20.60
2023-03-03T01:12:45.531Z,20.70
2023-03-03T01:13:45.497Z,20.90
2023-03-03T01:14:45.502Z,22.40
2023-03-03T01:15:45.485Z,23.00
2023-03-03T01:16:45.445Z,22.40
2023-03-03T01:17:45.456Z,22.80
2023-03-03T01:18:45.417Z,22.60
2023-03-03T01:19:45.425Z,22.50
2023-03-03T01:20:45.417Z,22.90
2023-03-03T01:21:45.506Z,23.70
2023-03-03T01:22:45.395Z,23.80
2023-03-03T01:23:45.371Z,22.70
2023-03-03T01:24:45.352Z,22.60
2023-03-03T01:25:45.332Z,22.30
2023-03-03T01:26:45.325Z,21.30
2023-03-03T01:27:45.325Z,23.30
2023-03-03T01:28:45.289Z,23.20
2023-03-03T01:29:45.281Z,22.10
2023-03-03T01:30:45.283Z,21.70
2023-03-03T01:31:45.252Z,23.20
2023-03-03T01:32:45.252Z,23.10
2023-03-03T01:33:45.233Z,22.30
2023-03-03T01:34:45.226Z,22.80
2023-03-03T01:35:45.244Z,23.20
2023-03-03T01:36:45.189Z,22.60
2023-03-03T01:37:45.195Z,22.10
2023-03-03T01:38:45.160Z,23.80
2023-03-03T01:39:45.143Z,22.40
2023-03-03T01:40:45.131Z,23.30
2023-03-03T01:41:45.149Z,22.80
2023-03-03T01:42:45.117Z,22.10
2023-03-03T01:43:45.120Z,23.00
2023-03-03T01:44:45.095Z,22.80
2023-03-03T01:45:45.074Z,22.10
2023-03-03T01:46:45.123Z,23.30
2023-03-03T01:47:45.071Z,23.00
2023-03-03T01:48:45.045Z,22.90
2023-03-03T01:49:45.029Z,23.30
2023-03-03T01:50:45.008Z,23.90
2023-03-03T01:51:45.013Z,23.20
2023-03-03T01:52:44.999Z,24.30
2023-03-03T01:53:44.991Z,23.30
2023-03-03T01:54:44.964Z,24.00
2023-03-03T01:55:44.967Z,23.20
2023-03-03T01:56:44.938Z,24.10
2023-03-03T01:57:44.936Z,24.90
2023-03-03T01:58:44.949Z,25.00
2023-03-03T01:59:44.916Z,25.70
2023-03-03T02:00:44.883Z,26.20
2023-03-03T02:01:44.953Z,26.70
2023-03-03T02:02:44.924Z,27.10
2023-03-03T02:03:44.856Z,25.60
2023-03-03T02:04:44.830Z,25.70
2023-03-03T02:05:44.837Z,26.00
2023-03-03T02:06:44.810Z,25.90
2023-03-03T02:07:44.805Z,24.60
2023-03-03T02:08:44.833Z,24.80
2023-03-03T02:09:44.782Z,25.50
2023-03-03T02:10:44.743Z,25.00
2023-03-03T02:11:44.764Z,24.70
2023-03-03T02:12:44.742Z,23.70
2023-03-03T02:13:44.750Z,23.80
2023-03-03T02:14:44.696Z,24.00
2023-03-03T02:15:44.713Z,23.50
2023-03-03T02:16:44.701Z,23.90
2023-03-03T02:17:44.696Z,23.30
2023-03-03T02:18:44.669Z,23.90
2023-03-03T02:19:44.675Z,23.60
2023-03-03T02:20:44.635Z,22.30
2023-03-03T02:21:44.620Z,22.40
2023-03-03T02:22:44.607Z,21.80
2023-03-03T02:23:44.609Z,23.00
2023-03-03T02:24:44.592Z,22.60
2023-03-03T02:25:44.568Z,22.60
2023-03-03T02:26:44.592Z,22.80
2023-03-03T02:27:44.562Z,22.50
2023-03-03T02:28:44.551Z,21.70
2023-03-03T02:29:44.546Z,22.80
2023-03-03T02:30:44.541Z,23.20
2023-03-03T02:31:44.574Z,22.70
2023-03-03T02:32:44.503Z,22.00
2023-03-03T02:33:44.529Z,23.00
2023-03-03T02:34:44.461Z,22.40
2023-03-03T02:35:44.497Z,23.80
2023-03-03T02:36:44.440Z,23.30
2023-03-03T02:37:44.421Z,22.30
2023-03-03T02:38:44.422Z,22.90
2023-03-03T02:39:44.413Z,22.90
2023-03-03T02:40:44.395Z,22.50
2023-03-03T02:41:44.372Z,23.00
2023-03-03T02:42:44.383Z,21.80
2023-03-03T02:43:44.360Z,22.50
2023-03-03T02:44:44.356Z,23.10
2023-03-03T02:45:44.392Z,24.00
2023-03-03T02:46:44.329Z,22.50
2023-03-03T02:47:44.290Z,22.80
2023-03-03T02:48:44.307Z,22.40
2023-03-03T02:49:44.276Z,22.40
2023-03-03T02:50:44.256Z,23.00
2023-03-03T02:51:44.236Z,23.10
2023-03-03T02:52:44.245Z,22.60
2023-03-03T02:53:44.237Z,23.30
2023-03-03T02:54:44.246Z,22.90
2023-03-03T02:55:44.194Z,22.00
2023-03-03T02:56:44.184Z,22.10
2023-03-03T02:57:44.165Z,23.90
2023-03-03T02:58:44.185Z,23.00
2023-03-03T02:59:44.144Z,22.30
2023-03-03T03:00:44.148Z,23.10
2023-03-03T03:01:44.106Z,23.50
2023-03-03T03:02:44.114Z,23.10
2023-03-03T03:03:44.087Z,24.10
2023-03-03T03:04:44.107Z,23.00
2023-03-03T03:05:44.062Z,23.10
2023-03-03T03:06:44.057Z,23.70
2023-03-03T03:07:44.034Z,22.90
2023-03-03T03:08:44.022Z,23.80
2023-03-03T03:09:44.041Z,24.80
2023-03-03T03:10:43.993Z,23.70
2023-03-03T03:11:43.993Z,23.80
2023-03-03T03:12:43.986Z,23.80
2023-03-03T03:13:43.963Z,23.70
2023-03-03T03:14:43.983Z,23.10
2023-03-03T03:15:43.936Z,24.20
2023-03-03T03:16:44.100Z,22.90
2023-03-03T03:17:43.936Z,22.30
2023-03-03T03:18:43.904Z,23.50
2023-03-03T03:19:43.902Z,24.00
2023-03-03T03:20:43.878Z,23.40
2023-03-03T03:21:43.881Z,23.20
2023-03-03T03:22:43.853Z,22.90
2023-03-03T03:23:43.834Z,23.50
2023-03-03T03:24:43.842Z,23.70
2023-03-03T03:25:44.434Z,22.70
2023-03-03T03:26:43.814Z,23.80
2023-03-03T03:27:43.796Z,23.30
2023-03-03T03:28:43.793Z,23.60
2023-03-03T03:29:43.786Z,23.40
2023-03-03T03:30:43.781Z,22.60
2023-03-03T03:31:43.779Z,21.80
2023-03-03T03:32:43.735Z,22.40
2023-03-03T03:33:43.716Z,22.40
2023-03-03T03:34:43.726Z,22.10
2023-03-03T03:35:43.718Z,23.10
2023-03-03T03:36:43.693Z,21.90
2023-03-03T03:37:43.656Z,21.70
2023-03-03T03:38:43.661Z,21.10
2023-03-03T03:39:43.663Z,21.10
2023-03-03T03:40:43.621Z,21.90
2023-03-03T03:41:43.624Z,22.20
2023-03-03T03:42:43.603Z,22.90
2023-03-03T03:43:43.591Z,21.90
2023-03-03T03:44:43.612Z,22.50
2023-03-03T03:45:43.680Z,22.50
2023-03-03T03:46:43.565Z,23.30
2023-03-03T03:47:43.539Z,22.90
2023-03-03T03:48:43.531Z,22.80
2023-03-03T03:49:43.550Z,21.80
2023-03-03T04:03:17.041Z,21.10
2023-03-03T04:04:16.820Z,19.80
2023-03-03T04:05:16.842Z,22.00
2023-03-03T04:06:16.801Z,25.10
2023-03-03T04:07:16.780Z,25.50
2023-03-03T04:08:16.782Z,26.00
2023-03-03T04:09:16.799Z,26.60
2023-03-03T04:10:16.761Z,26.00
2023-03-03T04:11:16.758Z,25.80
2023-03-03T04:12:16.731Z,26.20
2023-03-03T04:13:16.729Z,26.80
2023-03-03T04:14:16.714Z,27.20
2023-03-03T04:15:16.735Z,26.00
2023-03-03T04:16:16.684Z,26.80
2023-03-03T04:17:16.679Z,28.00
2023-03-03T04:18:16.666Z,25.90
2023-03-03T04:19:16.634Z,24.70
2023-03-03T04:20:16.669Z,25.50
2023-03-03T04:21:16.804Z,26.70
2023-03-03T04:22:16.614Z,25.90
2023-03-03T04:23:16.597Z,25.40
2023-03-03T04:24:16.653Z,27.20
2023-03-03T04:25:16.581Z,26.40
2023-03-03T04:26:16.566Z,26.10
2023-03-03T04:27:16.543Z,25.40
2023-03-03T04:28:16.570Z,26.80
2023-03-03T04:29:16.537Z,27.00
2023-03-03T04:30:16.581Z,25.40
2023-03-03T04:31:16.544Z,25.70
2023-03-03T04:32:16.596Z,25.10
2023-03-03T04:33:16.508Z,23.80
2023-03-03T04:34:16.474Z,26.30
2023-03-03T04:35:16.712Z,25.10
2023-03-03T04:36:16.450Z,25.70
2023-03-03T04:37:16.426Z,27.20
2023-03-03T04:38:16.436Z,25.50
2023-03-03T04:39:16.401Z,24.70
2023-03-03T04:40:16.639Z,25.30
2023-03-03T04:41:16.385Z,24.60
2023-03-03T04:42:16.364Z,24.90
2023-03-03T04:43:16.359Z,23.80
2023-03-03T04:44:16.346Z,25.70
2023-03-03T04:45:16.325Z,25.80
2023-03-03T04:46:16.381Z,25.80
2023-03-03T04:47:16.351Z,26.10
2023-03-03T04:48:16.285Z,25.20
2023-03-03T04:49:16.272Z,24.60
2023-03-03T04:50:16.278Z,24.70
2023-03-03T04:51:16.256Z,25.20
2023-03-03T04:52:16.237Z,24.40
2023-03-03T04:53:16.241Z,23.50
2023-03-03T04:54:16.218Z,24.20
2023-03-03T04:55:16.206Z,24.20
2023-03-03T04:56:16.216Z,23.10
2023-03-03T04:57:16.180Z,24.70
2023-03-03T04:58:16.156Z,24.90
2023-03-03T04:59:16.161Z,25.10
2023-03-03T05:00:16.142Z,24.30
2023-03-03T05:01:16.157Z,25.20
2023-03-03T05:02:16.115Z,25.40
2023-03-03T05:03:16.093Z,24.60
2023-03-03T05:04:16.151Z,24.60
2023-03-03T05:05:16.073Z,25.20
2023-03-03T05:06:16.070Z,25.60
2023-03-03T05:07:16.086Z,25.60
2023-03-03T05:08:16.041Z,24.90
2023-03-03T05:09:16.036Z,25.00
2023-03-03T05:10:16.008Z,25.20
2023-03-03T05:11:16.027Z,26.40
2023-03-03T05:12:15.995Z,25.20
2023-03-03T05:13:15.977Z,25.20
2023-03-03T05:14:15.946Z,27.90
2023-03-03T05:15:15.946Z,28.90
2023-03-03T05:16:16.010Z,28.00
2023-03-03T05:17:15.927Z,27.50
2023-03-03T05:18:15.922Z,29.10
2023-03-03T05:19:15.901Z,27.00
2023-03-03T05:20:15.902Z,26.90
2023-03-03T05:21:15.885Z,26.90
2023-03-03T05:22:15.851Z,26.80
2023-03-03T05:23:15.860Z,27.50
2023-03-03T05:24:15.824Z,25.80
2023-03-03T05:25:15.818Z,25.20
2023-03-03T05:26:15.839Z,24.90
2023-03-03T05:27:15.810Z,24.70
2023-03-03T05:28:15.784Z,24.70
2023-03-03T05:29:15.796Z,24.80
2023-03-03T05:30:15.765Z,25.70
2023-03-03T05:31:15.789Z,24.40
2023-03-03T05:32:15.815Z,25.00
2023-03-03T05:33:15.728Z,25.10
2023-03-03T05:34:15.758Z,25.00
2023-03-03T05:35:15.698Z,26.70
2023-03-03T05:36:15.676Z,25.40
2023-03-03T05:37:15.681Z,26.10
2023-03-03T05:38:15.663Z,25.20
2023-03-03T05:39:15.653Z,24.90
2023-03-03T05:40:15.635Z,25.50
2023-03-03T05:41:15.660Z,25.00
2023-03-03T05:42:15.629Z,24.60
2023-03-03T05:43:15.594Z,25.60
2023-03-03T05:44:15.574Z,26.10
2023-03-03T05:45:15.583Z,25.70
2023-03-03T05:46:15.609Z,27.50
2023-03-03T05:47:15.551Z,25.10
2023-03-03T05:48:15.549Z,24.40
2023-03-03T05:49:15.535Z,25.50
2023-03-03T05:50:15.523Z,24.10
2023-03-03T05:51:15.523Z,25.60
2023-03-03T05:52:15.491Z,25.90
2023-03-03T05:53:15.523Z,26.00
2023-03-03T05:54:15.444Z,24.80
2023-03-03T05:55:15.444Z,25.70
2023-03-03T05:56:15.434Z,26.00
2023-03-03T05:57:15.446Z,25.50
2023-03-03T05:58:15.404Z,24.80
2023-03-03T05:59:15.422Z,24.60
2023-03-03T06:00:15.386Z,25.00
2023-03-03T06:01:15.377Z,25.00
2023-03-03T06:02:15.375Z,25.80
2023-03-03T06:03:15.375Z,26.10
2023-03-03T06:04:15.342Z,26.80
2023-03-03T06:05:15.334Z,26.60
2023-03-03T06:06:15.316Z,25.40
2023-03-03T06:07:15.326Z,25.00
2023-03-03T06:08:15.277Z,25.80
2023-03-03T06:09:15.279Z,26.50
2023-03-03T06:10:15.271Z,26.10
2023-03-03T06:11:15.246Z,25.40
2023-03-03T06:12:15.253Z,26.20
2023-03-03T06:13:15.220Z,26.50
2023-03-03T06:14:15.215Z,26.80
2023-03-03T06:15:15.243Z,25.40
2023-03-03T06:16:15.178Z,25.90
2023-03-03T06:17:15.207Z,26.40
2023-03-03T06:18:15.182Z,27.30
2023-03-03T06:19:15.157Z,26.00
2023-03-03T06:20:15.143Z,25.30
2023-03-03T06:21:15.130Z,24.80
2023-03-03T06:22:15.108Z,24.00
2023-03-03T06:23:15.135Z,26.20
2023-03-03T06:24:15.097Z,25.30
2023-03-03T06:25:15.082Z,25.30
2023-03-03T06:26:15.066Z,24.90
2023-03-03T06:27:15.049Z,23.60
2023-03-03T06:28:15.050Z,25.00
2023-03-03T06:29:15.841Z,24.10
2023-03-03T06:30:15.014Z,25.40
2023-03-03T06:31:15.075Z,23.60
2023-03-03T06:32:15.140Z,25.10
2023-03-03T06:33:15.028Z,26.90
2023-03-03T06:34:14.963Z,24.80
2023-03-03T06:35:14.961Z,25.20
2023-03-03T06:36:14.940Z,25.00
2023-03-03T06:37:14.931Z,26.00
2023-03-03T06:38:14.925Z,25.10
2023-03-03T06:39:14.912Z,27.20
2023-03-03T06:40:14.892Z,27.60
2023-03-03T06:41:14.906Z,27.10
2023-03-03T06:42:14.862Z,30.00
2023-03-03T06:43:14.879Z,31.40
2023-03-03T06:44:14.859Z,29.80
2023-03-03T06:45:14.822Z,31.70
2023-03-03T06:46:14.813Z,31.40
2023-03-03T06:47:14.815Z,29.60
2023-03-03T06:48:14.805Z,29.90
2023-03-03T06:49:14.784Z,29.50
2023-03-03T06:50:14.753Z,29.60
2023-03-03T06:51:14.761Z,28.60
2023-03-03T06:52:14.750Z,27.10
2023-03-03T06:53:14.753Z,27.10
2023-03-03T06:54:14.720Z,25.80
2023-03-03T06:55:14.704Z,27.10
2023-03-03T06:56:14.692Z,27.40
2023-03-03T06:57:14.690Z,28.00
2023-03-03T06:58:14.673Z,27.30
2023-03-03T06:59:14.671Z,25.70
2023-03-03T07:00:14.640Z,25.50
2023-03-03T07:01:14.788Z,23.40
2023-03-03T07:02:14.623Z,24.50
2023-03-03T07:03:14.636Z,24.10
2023-03-03T07:04:14.621Z,24.60
2023-03-03T07:05:14.588Z,24.00
2023-03-03T07:06:14.570Z,24.00
2023-03-03T07:07:14.562Z,24.70
2023-03-03T07:08:14.549Z,23.60
2023-03-03T07:09:14.557Z,25.00
2023-03-03T07:10:14.520Z,23.70
2023-03-03T07:11:14.521Z,23.80
2023-03-03T07:12:14.492Z,22.80
2023-03-03T07:13:14.526Z,23.80
2023-03-03T07:14:14.489Z,23.60
2023-03-03T07:15:14.481Z,24.00
2023-03-03T07:16:14.534Z,24.30
2023-03-03T07:17:14.436Z,22.70
2023-03-03T07:18:14.445Z,25.30
2023-03-03T07:19:14.430Z,24.20
2023-03-03T07:20:14.395Z,24.70
2023-03-03T07:21:14.401Z,25.10
2023-03-03T07:22:14.384Z,25.20
2023-03-03T07:23:14.398Z,24.20
2023-03-03T07:24:14.406Z,24.60
2023-03-03T07:25:14.364Z,24.80
2023-03-03T07:26:14.326Z,26.80
2023-03-03T07:27:14.319Z,25.80
2023-03-03T07:28:14.307Z,27.00
2023-03-03T07:29:14.300Z,27.40
2023-03-03T07:30:14.282Z,27.50
2023-03-03T07:31:14.343Z,26.00
2023-03-03T07:32:14.306Z,25.80
2023-03-03T07:33:14.278Z,24.90
2023-03-03T07:34:14.235Z,26.00
2023-03-03T07:35:14.267Z,27.60
2023-03-03T07:36:14.209Z,28.60
2023-03-03T07:37:14.206Z,27.40
2023-03-03T07:38:14.198Z,25.80
2023-03-03T07:39:14.200Z,25.50
2023-03-03T07:40:14.194Z,25.00
2023-03-03T07:41:14.152Z,24.60
2023-03-03T07:42:14.132Z,26.70
2023-03-03T07:43:14.151Z,24.90
2023-03-03T07:44:14.121Z,25.20
2023-03-03T07:45:14.110Z,25.00
2023-03-03T07:46:14.160Z,25.40
2023-03-03T07:47:14.065Z,25.20
2023-03-03T07:48:14.089Z,24.80
2023-03-03T07:49:14.077Z,25.30
2023-03-03T07:50:14.044Z,25.50
2023-03-03T07:51:14.021Z,25.00
2023-03-03T07:52:14.010Z,25.80
2023-03-03T07:53:14.002Z,24.40
2023-03-03T07:54:14.009Z,26.90
2023-03-03T07:55:13.980Z,26.70
2023-03-03T07:56:13.952Z,25.90
2023-03-03T07:57:13.955Z,27.80
2023-03-03T07:58:13.933Z,26.70
2023-03-03T07:59:13.932Z,27.80
2023-03-03T08:00:13.931Z,27.00
2023-03-03T08:01:13.912Z,27.30
2023-03-03T08:02:13.886Z,27.30
2023-03-03T08:03:13.887Z,27.80
2023-03-03T08:04:13.954Z,27.10
2023-03-03T08:05:13.965Z,28.00
2023-03-03T08:06:13.846Z,26.60
2023-03-03T08:07:13.834Z,27.00
2023-03-03T08:08:13.813Z,26.80
2023-03-03T08:09:13.811Z,28.20
2023-03-03T08:10:13.792Z,29.00
2023-03-03T08:11:13.780Z,26.10
2023-03-03T08:12:13.756Z,26.10
2023-03-03T08:13:13.747Z,26.10
2023-03-03T08:14:13.736Z,25.40
2023-03-03T08:15:13.735Z,25.10
2023-03-03T08:16:13.793Z,24.20
2023-03-03T08:17:13.693Z,25.40
2023-03-03T08:18:13.679Z,24.80
2023-03-03T08:19:13.698Z,25.40
2023-03-03T08:20:13.657Z,24.10
2023-03-03T08:21:13.648Z,25.70
2023-03-03T08:22:13.620Z,25.40
2023-03-03T08:23:13.607Z,26.10
2023-03-03T08:24:13.609Z,25.70
2023-03-03T08:25:13.581Z,26.80
2023-03-03T08:26:13.576Z,28.20
2023-03-03T08:27:13.588Z,27.50
2023-03-03T08:28:13.545Z,27.90
2023-03-03T08:29:13.533Z,26.60
2023-03-03T08:30:13.523Z,29.20
2023-03-03T08:31:24.952Z,28.10
2023-03-03T08:32:14.576Z,28.80
2023-03-03T08:33:13.478Z,30.10
2023-03-03T08:34:13.463Z,28.10
2023-03-03T08:35:13.491Z,29.40
2023-03-03T08:36:13.437Z,27.10
2023-03-03T08:37:13.427Z,27.90
2023-03-03T08:38:13.402Z,28.20
2023-03-03T08:39:13.397Z,28.20
2023-03-03T08:40:13.424Z,28.90
2023-03-03T08:41:13.373Z,28.90
2023-03-03T08:42:15.280Z,29.00
2023-03-03T08:43:13.346Z,27.10
2023-03-03T08:44:13.327Z,29.40
2023-03-03T08:45:13.353Z,28.40
2023-03-03T08:46:13.346Z,27.90
2023-03-03T08:47:13.296Z,28.50
2023-03-03T08:48:13.311Z,27.90
2023-03-03T08:49:13.296Z,27.40
2023-03-03T08:50:13.272Z,28.10
2023-03-03T08:51:13.269Z,28.20
2023-03-03T08:52:13.245Z,27.90
2023-03-03T08:53:13.240Z,27.90
2023-03-03T08:54:13.205Z,27.80
2023-03-03T08:55:13.230Z,26.90
2023-03-03T08:56:13.186Z,27.70
2023-03-03T08:57:13.176Z,27.00
2023-03-03T08:58:13.184Z,28.50
2023-03-03T08:59:13.148Z,28.20
2023-03-03T09:00:13.149Z,27.20
2023-03-03T09:01:13.128Z,29.50
2023-03-03T09:02:13.163Z,29.20
2023-03-03T09:03:13.106Z,29.40
2023-03-03T09:04:13.088Z,29.20
2023-03-03T09:05:13.092Z,28.90
2023-03-03T09:06:13.084Z,28.40
2023-03-03T09:07:13.047Z,28.70
2023-03-03T09:08:13.027Z,27.30
2023-03-03T09:09:13.024Z,27.30
2023-03-03T09:10:13.047Z,28.20
2023-03-03T09:11:12.999Z,27.60
2023-03-03T09:12:12.985Z,28.30
2023-03-03T09:13:12.978Z,28.10
2023-03-03T09:14:12.947Z,26.90
2023-03-03T09:15:12.945Z,27.40
2023-03-03T09:16:12.950Z,26.90
2023-03-03T09:17:12.942Z,25.80
2023-03-03T09:18:12.897Z,27.20
2023-03-03T09:19:12.888Z,26.40
2023-03-03T09:20:12.899Z,28.00
2023-03-03T09:21:12.863Z,25.00
2023-03-03T09:22:12.860Z,25.20
2023-03-03T09:23:12.858Z,25.70
2023-03-03T09:24:12.834Z,26.30
2023-03-03T09:25:12.837Z,25.30
2023-03-03T09:26:12.805Z,24.60
2023-03-03T09:27:12.799Z,25.50
2023-03-03T09:28:12.778Z,25.20
2023-03-03T09:29:12.776Z,24.90
2023-03-03T09:30:12.773Z,24.50
2023-03-03T09:31:12.757Z,23.50
2023-03-03T09:32:12.795Z,23.20
2023-03-03T09:33:12.746Z,23.10
2023-03-03T09:34:12.720Z,22.70
2023-03-03T09:35:12.719Z,22.50
2023-03-03T09:36:21.228Z,22.60
2023-03-03T09:37:15.332Z,23.00
2023-03-03T09:38:12.671Z,21.50
2023-03-03T09:39:12.642Z,21.50
2023-03-03T09:40:12.627Z,21.00
2023-03-03T09:41:12.634Z,20.80
2023-03-03T09:42:12.613Z,20.30
2023-03-03T09:43:12.577Z,20.00
2023-03-03T09:44:12.597Z,20.00
2023-03-03T09:45:12.575Z,20.50
2023-03-03T09:46:12.580Z,20.60
2023-03-03T09:47:12.551Z,19.80
2023-03-03T10:03:37.152Z,19.10
2023-03-03T10:04:37.071Z,18.00
2023-03-03T10:05:37.081Z,17.30
2023-03-03T10:06:37.060Z,18.10
2023-03-03T10:07:37.028Z,18.20
2023-03-03T10:08:37.031Z,18.70
2023-03-03T10:09:37.007Z,19.10
2023-03-03T10:10:37.028Z,18.40
2023-03-03T10:11:36.997Z,19.20
2023-03-03T10:12:37.000Z,19.30
2023-03-03T10:13:36.962Z,17.80
2023-03-03T10:14:36.963Z,19.40
2023-03-03T10:15:36.950Z,18.20
2023-03-03T10:16:36.945Z,17.80
2023-03-03T10:17:36.966Z,18.40
2023-03-03T10:18:36.920Z,18.50
2023-03-03T10:19:36.905Z,18.30
2023-03-03T10:20:49.049Z,19.10
2023-03-03T10:21:37.869Z,18.90
2023-03-03T10:22:36.857Z,17.90
2023-03-03T10:23:36.835Z,16.90
2023-03-03T10:24:36.832Z,17.80
2023-03-03T10:25:36.851Z,18.40
2023-03-03T10:26:44.973Z,17.80
2023-03-03T10:27:37.795Z,17.20
2023-03-03T10:28:36.806Z,17.50
2023-03-03T10:29:36.784Z,17.80
2023-03-03T10:30:42.597Z,18.50
2023-03-03T10:31:37.786Z,17.60
2023-03-03T10:32:36.827Z,18.60
2023-03-03T10:33:36.824Z,17.30
2023-03-03T10:34:36.724Z,18.90
2023-03-03T10:35:36.754Z,18.10
2023-03-03T10:36:36.676Z,17.20
2023-03-03T10:37:36.676Z,17.30
2023-03-03T10:38:36.650Z,17.00
2023-03-03T10:39:36.645Z,17.50
2023-03-03T10:40:36.646Z,16.40
2023-03-03T10:41:36.613Z,17.30
2023-03-03T10:42:36.616Z,17.80
2023-03-03T10:43:36.582Z,17.40
2023-03-03T10:44:36.582Z,16.70
2023-03-03T10:45:36.594Z,17.00
2023-03-03T10:46:36.544Z,16.80
2023-03-03T10:47:36.530Z,16.80
2023-03-03T10:48:38.754Z,16.60
2023-03-03T10:49:36.505Z,16.90
2023-03-03T10:50:36.533Z,17.00
2023-03-03T10:51:36.497Z,16.90
2023-03-03T10:52:36.534Z,17.40
2023-03-03T10:53:36.465Z,17.90
2023-03-03T10:54:36.445Z,17.80
2023-03-03T10:55:39.275Z,16.90
2023-03-03T10:56:51.723Z,16.70
2023-03-03T10:57:37.386Z,16.70
2023-03-03T10:58:36.428Z,17.20
2023-03-03T10:59:36.362Z,16.40
2023-03-03T11:00:36.385Z,16.80
2023-03-03T11:01:36.408Z,17.30
2023-03-03T11:02:36.345Z,17.10
2023-03-03T11:03:36.317Z,17.30
2023-03-03T11:04:36.415Z,16.50
2023-03-03T11:05:36.297Z,16.00
2023-03-03T11:06:36.306Z,16.10
2023-03-03T11:07:36.271Z,16.20
2023-03-03T11:08:36.267Z,16.50
2023-03-03T11:09:36.259Z,15.70
2023-03-03T11:10:36.242Z,15.90
2023-03-03T11:11:36.241Z,16.30
2023-03-03T11:12:36.232Z,15.80
2023-03-03T11:13:36.215Z,15.90
2023-03-03T11:14:36.202Z,15.60
2023-03-03T11:15:36.189Z,15.90
2023-03-03T11:16:36.201Z,16.00
2023-03-03T11:17:36.150Z,15.90
2023-03-03T11:18:36.154Z,16.00
2023-03-03T11:19:36.111Z,17.20
2023-03-03T11:20:36.128Z,16.60
2023-03-03T11:21:36.260Z,16.50
2023-03-03T11:22:36.083Z,16.80
2023-03-03T11:23:36.083Z,16.40
2023-03-03T11:24:36.062Z,16.00
2023-03-03T11:25:36.166Z,16.00
2023-03-03T11:26:36.053Z,16.60
2023-03-03T11:27:36.105Z,16.40
2023-03-03T11:28:36.041Z,15.60
2023-03-03T11:29:36.003Z,15.80
2023-03-03T11:30:36.020Z,14.80
2023-03-03T11:31:35.982Z,14.90
2023-03-03T11:32:36.014Z,14.00
2023-03-03T11:33:35.937Z,14.60
2023-03-03T11:34:35.977Z,14.30
2023-03-03T11:35:35.964Z,14.00
2023-03-03T11:36:35.910Z,14.30
2023-03-03T11:37:35.888Z,13.70
2023-03-03T11:38:36.056Z,14.10
2023-03-03T11:39:35.862Z,15.00
2023-03-03T11:40:35.866Z,13.20
2023-03-03T11:41:35.884Z,13.90
2023-03-03T11:42:35.921Z,14.60
2023-03-03T11:43:37.595Z,13.20
2023-03-03T11:44:35.811Z,13.10
2023-03-03T11:45:35.780Z,13.30
2023-03-03T11:46:35.859Z,13.20
2023-03-03T11:47:35.776Z,13.20
2023-03-03T11:48:35.743Z,14.10
2023-03-03T11:49:35.766Z,13.30
2023-03-03T11:50:35.811Z,13.80
2023-03-03T11:51:35.734Z,13.70
2023-03-03T11:52:35.722Z,13.20
2023-03-03T11:53:35.781Z,15.80
2023-03-03T11:54:35.665Z,14.40
2023-03-03T11:55:35.714Z,13.70
2023-03-03T11:56:35.664Z,14.20
2023-03-03T11:57:35.666Z,13.20
2023-03-03T11:58:35.669Z,13.00
2023-03-03T11:59:35.701Z,12.90
2023-03-03T12:00:35.673Z,12.90
2023-03-03T12:01:35.665Z,14.10
2023-03-03T12:02:35.817Z,13.60
2023-03-03T12:03:35.644Z,13.00
2023-03-03T12:04:35.576Z,13.80
2023-03-03T12:05:35.599Z,13.60
2023-03-03T12:06:35.528Z,13.70
2023-03-03T12:07:35.556Z,13.30
2023-03-03T12:08:35.516Z,13.10
2023-03-03T12:09:35.539Z,13.70
2023-03-03T12:10:35.489Z,13.70
2023-03-03T12:11:35.580Z,12.90
2023-03-03T12:12:35.518Z,13.40
2023-03-03T12:13:35.570Z,13.00
2023-03-03T12:14:35.461Z,12.70
2023-03-03T12:15:35.566Z,12.80
2023-03-03T12:16:35.503Z,13.40
2023-03-03T12:17:35.428Z,13.20
2023-03-03T12:18:35.411Z,12.90
2023-03-03T12:19:35.416Z,13.60
2023-03-03T12:20:35.393Z,13.50
2023-03-03T12:21:35.430Z,13.40
2023-03-03T12:22:35.612Z,12.90
2023-03-03T12:23:35.406Z,12.50
2023-03-03T12:24:35.492Z,13.00
2023-03-03T12:25:35.401Z,12.30
2023-03-03T12:26:35.363Z,13.20
2023-03-03T12:27:35.345Z,12.70
2023-03-03T12:28:35.313Z,12.30
2023-03-03T12:29:35.305Z,12.00
2023-03-03T12:30:35.318Z,13.00
2023-03-03T12:31:35.322Z,13.00
2023-03-03T12:32:35.452Z,13.50
2023-03-03T12:33:35.304Z,13.00
2023-03-03T12:34:35.347Z,13.10
2023-03-03T12:35:35.338Z,13.30
2023-03-03T12:36:35.245Z,12.90
2023-03-03T12:37:35.250Z,12.00
2023-03-03T12:38:36.230Z,13.20
2023-03-03T12:39:35.755Z,12.50
2023-03-03T12:40:35.188Z,13.00
2023-03-03T12:41:35.238Z,13.20
2023-03-03T12:42:35.286Z,13.20
2023-03-03T12:43:35.150Z,13.10
2023-03-03T12:44:35.190Z,12.90
2023-03-03T12:45:35.166Z,12.60
2023-03-03T12:46:35.337Z,13.00
2023-03-03T12:47:35.082Z,12.40
2023-03-03T12:48:35.104Z,12.60
2023-03-03T12:49:42.737Z,12.50
2023-03-03T12:50:36.058Z,12.80
2023-03-03T12:51:35.129Z,11.80
2023-03-03T12:52:35.034Z,12.60
2023-03-03T12:53:35.125Z,12.30
2023-03-03T12:54:37.965Z,12.00
2023-03-03T12:55:35.177Z,13.00
2023-03-03T12:56:35.029Z,12.20
2023-03-03T12:57:34.998Z,12.90
2023-03-03T12:58:35.049Z,12.70
2023-03-03T12:59:34.951Z,12.40
2023-03-03T13:00:34.971Z,11.90
2023-03-03T13:01:34.998Z,11.80
2023-03-03T13:02:34.898Z,12.10
2023-03-03T13:03:41.019Z,12.50
2023-03-03T13:04:35.880Z,11.50
2023-03-03T13:05:35.023Z,12.00
2023-03-03T13:06:34.893Z,12.40
2023-03-03T13:07:34.834Z,12.40
2023-03-03T13:08:34.843Z,12.00
2023-03-03T13:09:34.858Z,12.10
2023-03-03T13:10:34.816Z,12.50
2023-03-03T13:11:34.800Z,12.50
2023-03-03T13:12:34.811Z,12.60
2023-03-03T13:13:34.760Z,11.60
2023-03-03T13:14:35.054Z,12.30
2023-03-03T13:15:37.663Z,11.20
2023-03-03T13:16:40.973Z,13.10
2023-03-03T13:17:35.715Z,11.90
2023-03-03T13:18:34.701Z,12.20
2023-03-03T13:19:35.712Z,12.70
2023-03-03T13:20:34.701Z,12.10